Time;durP1;ratioP1;P1;durP2;ratioP2;P2;SDS_P1;SDS_P2;PMS_P1;PMS_P2;Temp;Humidity;BMP_temperature;BMP_pressure;BME280_temperature;BME280_humidity;BME280_pressure;Samples;Min_cycle;Max_cycle;Signal;HPM_P1;HPM_P2
2022/08/12 00:43:29;;;;;;;;;;;;;;;21.06;80.21;101241.16;10024776;29;20377;-73
2022/08/12 00:48:32;;;;;;;;;;;;;;;21.01;80.38;101241.34;10024917;29;20271;-75
2022/08/12 00:53:38;;;;;;;;;;;;;;;21.01;80.22;101233.44;10024218;29;19935;-71
2022/08/12 00:58:46;;;;;;;;;;;;;;;20.98;80.75;101238.84;10023914;29;20030;-73
2022/08/12 01:14:35;;;;;;;;;;;;;;;20.89;80.56;101228.59;10023924;29;19951;-70
2022/08/12 01:19:38;;;;;;;;;;;;;;;20.89;81.04;101239.16;10023177;29;19932;-75
2022/08/12 01:24:53;;;;;;;;;;;;;;;20.89;80.36;101233.88;10022953;29;19928;-70
2022/08/12 01:29:57;;;;;;;;;;;;;;;20.92;80.73;101238.16;10022799;29;20027;-70
2022/08/12 01:35:03;;;;;;;;;;;;;;;20.89;80.92;101227.72;10022666;29;19934;-73
2022/08/12 01:40:10;;;;;;;;;;;;;;;20.90;80.35;101227.66;10021614;29;19929;-72
2022/08/12 01:45:35;;;;;;;;;;;;;;;20.89;80.74;101230.38;10022605;29;19929;-74
2022/08/12 01:50:50;;;;;;;;;;;;;;;20.86;81.13;101217.31;10022177;29;19968;-72
2022/08/12 01:55:55;;;;;;;;;;;;;;;20.84;80.49;101203.31;10021941;29;19928;-73
2022/08/12 02:01:02;;;;;;;;;;;;;;;20.71;81.16;101197.63;10022640;29;19940;-72
2022/08/12 02:11:33;;;;;;;;;;;;;;;20.76;80.12;101205.38;10022577;29;19939;-74
2022/08/12 02:16:46;;;;;;;;;;;;;;;20.73;80.52;101195.78;10024827;29;19928;-69
2022/08/12 02:21:51;;;;;;;;;;;;;;;20.75;80.66;101201.00;10024506;29;19929;-73
2022/08/12 02:26:56;;;;;;;;;;;;;;;20.74;80.78;101180.81;10024401;29;20279;-73
2022/08/12 02:31:59;;;;;;;;;;;;;;;20.73;81.30;101177.31;10024218;29;19950;-73
2022/08/12 02:37:02;;;;;;;;;;;;;;;20.65;81.10;101188.19;10023942;29;19932;-69
2022/08/12 02:42:10;;;;;;;;;;;;;;;20.67;80.91;101185.50;10024053;29;19972;-74
2022/08/12 02:47:14;;;;;;;;;;;;;;;20.69;80.90;101199.47;10023937;29;19929;-70
2022/08/12 02:52:37;;;;;;;;;;;;;;;20.62;81.85;101200.63;10034947;29;19929;-74
2022/08/12 02:57:43;;;;;;;;;;;;;;;20.69;82.81;101197.69;10036328;29;19928;-70
2022/08/12 03:02:46;;;;;;;;;;;;;;;20.69;82.03;101195.03;10036349;29;19939;-74
2022/08/12 03:07:52;;;;;;;;;;;;;;;20.70;82.44;101166.88;10036222;29;20262;-72
2022/08/12 03:13:05;;;;;;;;;;;;;;;20.62;83.24;101196.19;10036030;29;20107;-69
2022/08/12 03:18:13;;;;;;;;;;;;;;;20.58;83.31;101215.72;10035888;29;19936;-70
2022/08/12 03:23:30;;;;;;;;;;;;;;;20.57;84.44;101192.88;10035883;29;20080;-70
2022/08/12 03:28:52;;;;;;;;;;;;;;;20.57;84.31;101202.59;10035643;29;19935;-69
2022/08/12 03:33:57;;;;;;;;;;;;;;;20.55;84.44;101207.06;10035720;29;19939;-69
2022/08/12 03:39:21;;;;;;;;;;;;;;;20.53;84.75;101215.03;10035761;29;19975;-75
2022/08/12 04:00:45;;;;;;;;;;;;;;;20.41;89.17;101247.13;10033362;29;20362;-69
2022/08/12 04:05:48;;;;;;;;;;;;;;;20.41;90.25;101239.22;10029134;29;19996;-70
2022/08/12 04:16:20;;;;;;;;;;;;;;;20.31;89.91;101240.44;10029012;29;19939;-72
2022/08/12 04:21:23;;;;;;;;;;;;;;;20.37;90.11;101242.88;10028666;29;20266;-69
2022/08/12 04:26:27;;;;;;;;;;;;;;;20.37;90.24;101247.28;10028471;29;20008;-71
2022/08/12 04:31:34;;;;;;;;;;;;;;;20.44;89.50;101247.00;10028289;29;19929;-69
2022/08/12 04:36:38;;;;;;;;;;;;;;;20.46;89.57;101250.47;10027963;29;19939;-72
2022/08/12 04:41:41;;;;;;;;;;;;;;;20.54;88.75;101250.16;10027528;29;19929;-71
2022/08/12 04:47:02;;;;;;;;;;;;;;;20.59;88.91;101240.28;10027405;29;19936;-69
2022/08/12 04:52:05;;;;;;;;;;;;;;;20.59;89.94;101246.44;10027604;29;19939;-68
2022/08/12 04:57:08;;;;;;;;;;;;;;;20.58;89.41;101230.69;10027291;29;20347;-71
2022/08/12 05:02:13;;;;;;;;;;;;;;;20.64;89.46;101239.22;10027009;29;19940;-73
2022/08/12 05:07:22;;;;;;;;;;;;;;;20.76;89.58;101242.31;10026967;29;19938;-69
2022/08/12 05:12:28;;;;;;;;;;;;;;;20.90;89.32;101245.31;10026549;29;19984;-68
2022/08/12 05:17:32;;;;;;;;;;;;;;;20.90;89.32;101245.31;10026406;29;19928;-73
2022/08/12 05:22:37;;;;;;;;;;;;;;;20.92;89.03;101246.09;10026540;29;20016;-69
2022/08/12 05:27:40;;;;;;;;;;;;;;;20.92;89.42;101246.09;10025943;29;19965;-70
2022/08/12 05:33:04;;;;;;;;;;;;;;;21.02;89.21;101244.88;9714085;29;9999714;-74
2022/08/12 05:43:28;;;;;;;;;;;;;;;21.07;90.19;101258.75;10060784;29;19929;-70
2022/08/12 05:48:32;;;;;;;;;;;;;;;21.06;90.76;101260.53;10061649;29;20027;-73
2022/08/12 05:53:35;;;;;;;;;;;;;;;21.03;91.03;101254.50;10060352;29;19932;-74
2022/08/12 05:58:38;;;;;;;;;;;;;;;20.99;90.71;101244.97;10060034;29;19928;-71
2022/08/12 06:03:43;;;;;;;;;;;;;;;20.99;90.95;101239.69;10059724;29;20406;-72
2022/08/12 06:08:47;;;;;;;;;;;;;;;21.08;91.44;101236.69;10059632;29;19934;-71
2022/08/12 06:13:50;;;;;;;;;;;;;;;21.15;91.70;101227.63;10058886;29;19928;-74
2022/08/12 06:18:58;;;;;;;;;;;;;;;21.17;91.89;101223.13;10051889;29;19928;-74
2022/08/12 06:24:01;;;;;;;;;;;;;;;21.26;91.75;101225.41;10058501;29;19955;-73
2022/08/12 06:29:04;;;;;;;;;;;;;;;21.36;92.02;101230.28;10059213;29;19931;-72
2022/08/12 06:34:09;;;;;;;;;;;;;;;21.47;92.47;101240.38;10024769;29;19932;-74
2022/08/12 06:39:32;;;;;;;;;;;;;;;21.52;93.09;101246.31;10020738;29;19928;-73
2022/08/12 06:44:35;;;;;;;;;;;;;;;21.48;93.34;101234.19;10059370;29;19935;-78
2022/08/12 06:49:39;;;;;;;;;;;;;;;21.49;93.71;101235.91;10059219;29;19939;-66
2022/08/12 06:54:44;;;;;;;;;;;;;;;21.52;94.16;101241.91;10058325;29;19932;-68
2022/08/12 06:59:49;;;;;;;;;;;;;;;21.58;94.00;101240.81;10058589;29;19938;-66
2022/08/12 07:04:53;;;;;;;;;;;;;;;21.60;93.92;101234.56;10058145;29;19932;-66
2022/08/12 07:09:57;;;;;;;;;;;;;;;21.64;94.02;101224.72;10058867;29;19954;-71
2022/08/12 07:15:10;;;;;;;;;;;;;;;21.69;94.63;101234.16;10021046;29;19928;-68
2022/08/12 07:20:15;;;;;;;;;;;;;;;21.71;94.45;101237.59;10020406;29;19942;-66
2022/08/12 07:25:38;;;;;;;;;;;;;;;21.78;94.50;101228.50;10058129;29;19960;-64
2022/08/12 07:30:44;;;;;;;;;;;;;;;21.86;93.65;101219.41;10053251;29;20397;-75
2022/08/12 07:35:50;;;;;;;;;;;;;;;21.92;92.82;101227.94;10058324;29;20367;-75
2022/08/12 07:40:54;;;;;;;;;;;;;;;22.00;92.09;101224.97;9699340;29;9999686;-73
2022/08/12 07:45:59;;;;;;;;;;;;;;;22.14;91.27;101223.41;9728661;29;10000358;-75
2022/08/12 07:51:03;;;;;;;;;;;;;;;22.26;89.36;101224.69;10064527;29;19938;-78
2022/08/12 07:56:09;;;;;;;;;;;;;;;22.44;88.46;101230.00;10065868;29;19928;-75
2022/08/12 08:01:14;;;;;;;;;;;;;;;22.67;87.84;101224.59;10064698;29;20343;-72
2022/08/12 08:06:21;;;;;;;;;;;;;;;22.85;86.98;101215.78;10064289;29;19928;-66
2022/08/12 08:16:45;;;;;;;;;;;;;;;23.19;85.77;101215.03;10064197;29;20080;-68
2022/08/12 08:21:49;;;;;;;;;;;;;;;23.28;84.84;101213.75;10063279;29;19979;-68
2022/08/12 08:26:53;;;;;;;;;;;;;;;23.37;83.61;101218.59;10064167;29;20347;-70
2022/08/12 08:31:59;;;;;;;;;;;;;;;23.52;82.23;101220.50;10063504;29;19928;-68
2022/08/12 08:37:03;;;;;;;;;;;;;;;23.70;81.32;101227.53;10063255;29;20254;-68
2022/08/12 08:47:42;;;;;;;;;;;;;;;23.78;81.06;101225.38;10062158;29;19939;-69
2022/08/12 08:52:47;;;;;;;;;;;;;;;23.92;79.98;101222.84;10062823;29;19928;-69
2022/08/12 08:57:53;;;;;;;;;;;;;;;24.12;79.05;101224.50;10063084;29;20362;-69
2022/08/12 09:02:56;;;;;;;;;;;;;;;24.22;78.30;101220.44;10062189;29;20015;-70
2022/08/12 09:08:03;;;;;;;;;;;;;;;24.29;77.46;101206.78;10062870;29;20419;-69
2022/08/12 09:13:33;;;;;;;;;;;;;;;24.25;78.10;101205.22;10061656;29;19987;-68
2022/08/12 09:18:56;;;;;;;;;;;;;;;24.34;78.33;101206.53;10061733;29;19928;-69
2022/08/12 09:24:00;;;;;;;;;;;;;;;24.50;78.08;101221.56;10061170;29;19943;-69
2022/08/12 09:29:09;;;;;;;;;;;;;;;24.51;77.52;101215.31;10061647;29;20018;-68
2022/08/12 09:34:14;;;;;;;;;;;;;;;24.38;78.88;101222.22;10060774;29;19928;-68
2022/08/12 09:39:36;;;;;;;;;;;;;;;24.63;78.42;101222.59;10060845;29;20019;-67
2022/08/12 09:50:26;;;;;;;;;;;;;;;24.38;80.96;101210.75;10060554;29;19931;-69
2022/08/12 09:55:31;;;;;;;;;;;;;;;24.34;81.04;101209.16;10060307;29;19939;-68
2022/08/12 10:00:55;;;;;;;;;;;;;;;24.29;82.41;101213.88;10059281;29;19943;-77
2022/08/12 10:06:08;;;;;;;;;;;;;;;24.31;83.48;101206.69;10059561;29;19928;-74
2022/08/12 10:17:13;;;;;;;;;;;;;;;25.46;78.82;101206.44;10059362;29;19979;-77
2022/08/12 10:22:16;;;;;;;;;;;;;;;25.45;79.65;101202.97;10059149;29;20362;-73
2022/08/12 10:33:08;;;;;;;;;;;;;;;26.43;76.90;101189.00;10058797;29;19928;-74
2022/08/12 10:38:21;;;;;;;;;;;;;;;26.56;77.00;101186.44;10058692;29;19928;-74
2022/08/12 10:43:45;;;;;;;;;;;;;;;26.80;74.77;101167.09;10058481;29;19936;-77
2022/08/12 10:49:00;;;;;;;;;;;;;;;26.83;75.32;101163.41;10059659;29;20298;-77
2022/08/12 10:54:26;;;;;;;;;;;;;;;26.96;75.74;101165.16;10058924;29;20266;-77
2022/08/12 10:59:30;;;;;;;;;;;;;;;26.77;76.53;101156.66;10058595;29;20338;-75
2022/08/12 11:04:56;;;;;;;;;;;;;;;26.50;78.12;101173.50;10058274;29;20347;-76
2022/08/12 11:10:00;;;;;;;;;;;;;;;26.33;78.55;101163.91;10059112;29;20354;-76
2022/08/12 11:15:07;;;;;;;;;;;;;;;26.20;79.18;101165.59;10065839;29;20350;-77
2022/08/12 11:20:21;;;;;;;;;;;;;;;26.03;79.82;101152.47;10066201;29;19938;-77
2022/08/12 11:25:30;;;;;;;;;;;;;;;25.96;79.68;101151.09;10065997;29;19938;-75
2022/08/12 11:30:59;;;;;;;;;;;;;;;25.98;79.55;101150.06;9869030;29;10000052;-76
2022/08/12 11:36:06;;;;;;;;;;;;;;;26.07;78.63;101152.22;10042553;29;19928;-76
2022/08/12 11:41:18;;;;;;;;;;;;;;;26.02;79.42;101159.59;10065355;29;19939;-75
2022/08/12 11:46:36;;;;;;;;;;;;;;;26.06;79.78;101162.94;10064909;29;20370;-77
2022/08/12 11:51:39;;;;;;;;;;;;;;;26.12;80.04;101150.13;10064941;29;19979;-75
2022/08/12 11:56:42;;;;;;;;;;;;;;;26.22;79.90;101147.72;10064632;29;20011;-75
2022/08/12 12:02:04;;;;;;;;;;;;;;;26.21;79.81;101144.22;10067389;29;19928;-77
2022/08/12 12:07:07;;;;;;;;;;;;;;;26.05;80.98;101147.91;10066931;29;20027;-77
2022/08/12 12:12:13;;;;;;;;;;;;;;;25.87;81.53;101143.66;10067304;29;19928;-77
2022/08/12 12:17:18;;;;;;;;;;;;;;;25.80;81.22;101145.03;10066939;29;19928;-76
2022/08/12 12:22:23;;;;;;;;;;;;;;;26.12;79.69;101125.31;10065265;29;20374;-77
2022/08/12 12:27:43;;;;;;;;;;;;;;;26.16;79.82;101127.66;10066306;29;19934;-75
2022/08/12 12:33:09;;;;;;;;;;;;;;;26.18;80.07;101125.78;10066591;29;19935;-78
2022/08/12 12:38:19;;;;;;;;;;;;;;;26.61;78.70;101117.75;10066052;29;20369;-77
2022/08/12 12:43:27;;;;;;;;;;;;;;;26.78;77.97;101106.88;10066188;29;19932;-76
2022/08/12 12:48:47;;;;;;;;;;;;;;;28.09;73.70;101106.75;10065677;29;19934;-77
2022/08/12 12:53:50;;;;;;;;;;;;;;;29.13;70.71;101092.91;10065851;29;19928;-77
2022/08/12 12:59:12;;;;;;;;;;;;;;;29.18;70.67;101091.56;10065159;29;19940;-72
2022/08/12 13:04:36;;;;;;;;;;;;;;;29.10;70.33;101085.94;10065556;29;20019;-77
2022/08/12 13:09:39;;;;;;;;;;;;;;;28.31;72.44;101092.72;10064853;29;19928;-75
2022/08/12 13:14:48;;;;;;;;;;;;;;;27.53;75.25;101099.13;10065137;29;19984;-73
2022/08/12 13:19:54;;;;;;;;;;;;;;;27.34;75.19;101087.16;10064814;29;19936;-74
2022/08/12 13:24:58;;;;;;;;;;;;;;;27.09;75.49;101074.59;10064681;29;20243;-74
2022/08/12 13:30:03;;;;;;;;;;;;;;;26.68;75.86;101076.47;10064024;29;19928;-69
2022/08/12 13:35:15;;;;;;;;;;;;;;;26.51;76.24;101068.69;10064511;29;19939;-69
2022/08/12 13:40:22;;;;;;;;;;;;;;;26.69;75.29;101063.06;10063618;29;19932;-65
2022/08/12 13:45:27;;;;;;;;;;;;;;;26.43;76.38;101070.97;10063627;29;20266;-67
2022/08/12 13:50:35;;;;;;;;;;;;;;;26.28;77.22;101071.97;10063345;29;19932;-67
2022/08/12 13:55:38;;;;;;;;;;;;;;;26.31;77.69;101075.28;10064106;29;19929;-66
2022/08/12 14:00:45;;;;;;;;;;;;;;;26.71;76.08;101065.59;10063154;29;19928;-68
2022/08/12 14:05:49;;;;;;;;;;;;;;;26.55;76.13;101057.72;10063443;29;19928;-68
2022/08/12 14:10:58;;;;;;;;;;;;;;;26.64;76.16;101062.47;10062767;29;19938;-65
2022/08/12 14:16:02;;;;;;;;;;;;;;;26.77;76.33;101050.06;10062783;29;19939;-69
2022/08/12 14:21:08;;;;;;;;;;;;;;;26.71;76.10;101060.28;10062289;29;19928;-68
2022/08/12 14:26:23;;;;;;;;;;;;;;;26.56;76.37;101061.25;10062732;29;19940;-66
2022/08/12 14:31:26;;;;;;;;;;;;;;;26.53;77.04;101051.66;10062082;29;19997;-63
2022/08/12 14:36:35;;;;;;;;;;;;;;;26.45;77.67;101055.75;10062287;29;20027;-68
2022/08/12 14:41:39;;;;;;;;;;;;;;;26.35;78.09;101055.50;10061807;29;19932;-67
2022/08/12 14:46:59;;;;;;;;;;;;;;;26.40;77.83;101056.06;10061906;29;20011;-67
2022/08/12 14:52:11;;;;;;;;;;;;;;;26.39;78.00;101051.69;10023980;29;19968;-65
2022/08/12 14:57:35;;;;;;;;;;;;;;;26.28;78.90;101043.53;10026671;29;20358;-67
2022/08/12 15:02:57;;;;;;;;;;;;;;;26.17;79.48;101054.00;10061505;29;19938;-68
2022/08/12 15:08:02;;;;;;;;;;;;;;;26.25;79.15;101042.88;10061316;29;19928;-66
2022/08/12 15:13:08;;;;;;;;;;;;;;;26.33;78.29;101043.22;10061622;29;19947;-65
2022/08/12 15:18:12;;;;;;;;;;;;;;;26.36;78.71;101033.25;10061331;29;19935;-68
2022/08/12 15:23:17;;;;;;;;;;;;;;;26.31;79.56;101035.34;10061134;29;19928;-67
2022/08/12 15:28:24;;;;;;;;;;;;;;;26.08;80.19;101050.13;10061492;29;19955;-66
2022/08/12 15:33:27;;;;;;;;;;;;;;;25.92;80.68;101048.50;10060915;29;19928;-68
2022/08/12 15:38:49;;;;;;;;;;;;;;;25.82;80.99;101036.69;10060787;29;19934;-65
2022/08/12 15:43:55;;;;;;;;;;;;;;;25.66;81.32;101063.38;10061063;29;19939;-75
2022/08/12 15:49:18;;;;;;;;;;;;;;;25.61;81.64;101060.16;10054794;29;20286;-72
2022/08/12 15:54:23;;;;;;;;;;;;;;;25.50;81.96;101065.28;10060603;29;19988;-76
2022/08/12 15:59:38;;;;;;;;;;;;;;;25.40;84.13;101071.25;10063509;29;19928;-73
2022/08/12 16:05:01;;;;;;;;;;;;;;;24.90;86.54;101098.09;10066953;29;19928;-64
2022/08/12 16:10:26;;;;;;;;;;;;;;;24.27;92.22;101107.81;10067087;29;20212;-71
2022/08/12 16:15:36;;;;;;;;;;;;;;;23.54;100.00;101139.97;10066041;29;19954;-65
2022/08/12 16:20:44;;;;;;;;;;;;;;;23.03;100.00;101155.78;10066143;29;19928;-67
2022/08/12 16:25:50;;;;;;;;;;;;;;;22.78;100.00;101119.03;9728698;29;10000129;-67
2022/08/12 16:31:13;;;;;;;;;;;;;;;22.68;100.00;101078.06;10063719;29;19942;-67
2022/08/12 16:36:25;;;;;;;;;;;;;;;22.59;100.00;101097.00;10062363;29;19928;-68
2022/08/12 16:41:29;;;;;;;;;;;;;;;22.61;100.00;101087.22;10062045;29;20011;-67
2022/08/12 16:46:43;;;;;;;;;;;;;;;22.60;100.00;101082.00;10062961;29;19976;-68
2022/08/12 16:51:59;;;;;;;;;;;;;;;22.56;100.00;101081.28;10064153;29;19928;-69
2022/08/12 16:57:08;;;;;;;;;;;;;;;22.62;100.00;101099.50;10065581;29;19928;-68
2022/08/12 17:02:12;;;;;;;;;;;;;;;22.61;100.00;101092.50;10065607;29;19932;-68
2022/08/12 17:07:36;;;;;;;;;;;;;;;22.68;100.00;101088.66;10065192;29;19928;-65
2022/08/12 17:12:46;;;;;;;;;;;;;;;22.67;100.00;101086.06;10065321;29;19929;-66
2022/08/12 17:17:50;;;;;;;;;;;;;;;22.67;100.00;101086.94;10065012;29;19932;-67
2022/08/12 17:23:14;;;;;;;;;;;;;;;22.63;100.00;101077.41;10064517;29;19928;-68
2022/08/12 17:28:20;;;;;;;;;;;;;;;22.64;100.00;101073.84;10064816;29;19929;-67
2022/08/12 17:33:24;;;;;;;;;;;;;;;22.55;100.00;101069.00;10063988;29;19928;-68
2022/08/12 17:38:28;;;;;;;;;;;;;;;22.53;100.00;101062.03;10063960;29;19928;-67
2022/08/12 17:43:34;;;;;;;;;;;;;;;22.50;100.00;101054.25;10063792;29;19939;-68
2022/08/12 17:48:58;;;;;;;;;;;;;;;22.47;100.00;101049.06;10068826;29;19931;-68
2022/08/12 17:54:03;;;;;;;;;;;;;;;22.43;100.00;101045.75;10101865;29;19978;-67
2022/08/12 17:59:17;;;;;;;;;;;;;;;22.40;100.00;101039.75;10101457;29;20417;-65
2022/08/12 18:04:42;;;;;;;;;;;;;;;22.44;100.00;101041.28;10101707;29;20027;-66
2022/08/12 18:10:05;;;;;;;;;;;;;;;22.44;100.00;101030.69;10101131;29;20365;-67
2022/08/12 18:15:13;;;;;;;;;;;;;;;22.44;100.00;101028.06;10101407;29;19927;-66
2022/08/12 18:20:38;;;;;;;;;;;;;;;22.43;100.00;101027.22;10093546;29;20301;-69
2022/08/12 18:31:22;;;;;;;;;;;;;;;22.41;100.00;101026.44;10062396;29;19987;-62
2022/08/12 18:36:26;;;;;;;;;;;;;;;22.39;100.00;101019.50;10062730;29;19928;-64
2022/08/12 18:41:31;;;;;;;;;;;;;;;22.36;100.00;101019.63;10062744;29;19928;-67
2022/08/12 18:46:47;;;;;;;;;;;;;;;22.34;100.00;101024.16;10062383;29;20035;-75
2022/08/12 18:51:57;;;;;;;;;;;;;;;22.33;100.00;101019.78;10062629;29;19932;-71
2022/08/12 18:57:07;;;;;;;;;;;;;;;22.31;100.00;101016.38;10061893;29;19928;-69
2022/08/12 19:02:32;;;;;;;;;;;;;;;22.27;100.00;101023.59;10061582;29;19928;-68
2022/08/12 19:07:44;;;;;;;;;;;;;;;22.24;100.00;101012.28;10062110;29;19947;-71
2022/08/12 19:18:28;;;;;;;;;;;;;;;22.20;100.00;101023.94;10021098;29;19981;-65
2022/08/12 19:23:34;;;;;;;;;;;;;;;22.04;100.00;101025.59;10020220;29;20358;-68
2022/08/12 19:28:37;;;;;;;;;;;;;;;22.06;100.00;101021.94;10019951;29;19984;-67
2022/08/12 19:33:42;;;;;;;;;;;;;;;22.04;100.00;101018.50;10024511;29;19928;-66
2022/08/12 19:39:07;;;;;;;;;;;;;;;21.99;100.00;101014.34;10027177;29;19928;-69
2022/08/12 19:44:25;;;;;;;;;;;;;;;21.99;100.00;101015.22;10027334;29;19928;-69
2022/08/12 19:49:30;;;;;;;;;;;;;;;21.97;100.00;101009.13;10027051;29;19936;-68
2022/08/12 19:54:35;;;;;;;;;;;;;;;21.89;100.00;101006.00;10026568;29;19935;-67
2022/08/12 19:59:38;;;;;;;;;;;;;;;21.88;100.00;101022.81;10026329;29;19939;-67
2022/08/12 20:05:04;;;;;;;;;;;;;;;21.81;100.00;101012.56;10026668;29;20251;-67
2022/08/12 20:10:29;;;;;;;;;;;;;;;21.85;100.00;101025.56;10026132;29;19928;-67
2022/08/12 20:15:38;;;;;;;;;;;;;;;21.76;100.00;101013.59;10026304;29;20389;-66
2022/08/12 20:20:48;;;;;;;;;;;;;;;21.83;100.00;101022.13;10025732;29;20308;-68
2022/08/12 20:25:52;;;;;;;;;;;;;;;21.80;100.00;101014.34;10025453;29;19928;-65
2022/08/12 20:31:05;;;;;;;;;;;;;;;21.84;100.00;101023.00;10025442;29;19928;-67
2022/08/12 20:36:11;;;;;;;;;;;;;;;21.83;100.00;101023.94;10025502;29;19958;-66
2022/08/12 20:41:34;;;;;;;;;;;;;;;21.77;100.00;101020.66;10025160;29;19932;-68
2022/08/12 20:46:38;;;;;;;;;;;;;;;21.76;100.00;101023.34;10024106;29;19983;-68
2022/08/12 20:51:44;;;;;;;;;;;;;;;21.75;100.00;101018.97;10024613;29;20482;-68
2022/08/12 20:56:57;;;;;;;;;;;;;;;21.67;100.00;101018.47;10024967;29;20259;-67
2022/08/12 21:02:03;;;;;;;;;;;;;;;21.64;100.00;101016.78;10024231;29;20363;-65
2022/08/12 21:07:09;;;;;;;;;;;;;;;21.63;100.00;101014.22;10024041;29;19928;-64
2022/08/12 21:12:17;;;;;;;;;;;;;;;21.62;100.00;101009.88;10024381;29;19932;-67
2022/08/12 21:17:33;;;;;;;;;;;;;;;21.59;100.00;101012.63;10060338;29;19956;-64
2022/08/12 21:22:57;;;;;;;;;;;;;;;21.56;100.00;101012.78;10061628;29;19960;-68
2022/08/12 21:28:04;;;;;;;;;;;;;;;21.50;100.00;101021.84;10061562;29;20372;-65
2022/08/12 21:33:08;;;;;;;;;;;;;;;21.50;100.00;101005.16;10061355;29;20381;-68
2022/08/12 21:38:17;;;;;;;;;;;;;;;21.45;100.00;101009.78;10061268;29;19928;-66
2022/08/12 21:43:20;;;;;;;;;;;;;;;21.40;100.00;101040.78;10061454;29;20393;-62
2022/08/12 21:48:24;;;;;;;;;;;;;;;20.96;100.00;101052.38;10060833;29;20417;-63
2022/08/12 21:53:29;;;;;;;;;;;;;;;20.86;100.00;101041.34;10060667;29;19928;-67
2022/08/12 21:58:52;;;;;;;;;;;;;;;20.87;100.00;101068.56;10059744;29;19928;-66
2022/08/12 22:09:17;;;;;;;;;;;;;;;20.82;100.00;101081.09;10060592;29;19928;-68
2022/08/12 22:14:21;;;;;;;;;;;;;;;20.82;100.00;101057.34;10047374;29;19929;-69
2022/08/12 22:19:25;;;;;;;;;;;;;;;20.80;100.00;101051.25;10021668;29;19946;-65
2022/08/12 22:24:30;;;;;;;;;;;;;;;20.75;100.00;101033.00;10021444;29;19939;-69
2022/08/12 22:35:27;;;;;;;;;;;;;;;20.76;100.00;101010.13;10021151;29;20329;-65
2022/08/12 22:40:32;;;;;;;;;;;;;;;20.67;100.00;100987.59;10021478;29;19940;-64
2022/08/12 22:51:00;;;;;;;;;;;;;;;20.80;100.00;100970.34;10020880;29;19944;-63
2022/08/12 22:56:06;;;;;;;;;;;;;;;20.84;100.00;100964.00;10020607;29;20275;-64
2022/08/12 23:01:10;;;;;;;;;;;;;;;20.86;100.00;100950.75;10020647;29;20537;-63
2022/08/12 23:06:24;;;;;;;;;;;;;;;20.89;100.00;100963.81;10022259;29;20000;-66
2022/08/12 23:11:30;;;;;;;;;;;;;;;20.87;100.00;100957.72;10028724;29;19928;-66
2022/08/12 23:16:44;;;;;;;;;;;;;;;20.79;100.00;100957.22;10058724;29;20374;-63
2022/08/12 23:21:52;;;;;;;;;;;;;;;20.83;100.00;100962.28;10066113;29;19942;-64
2022/08/12 23:32:53;;;;;;;;;;;;;;;20.88;100.00;100941.81;10065676;29;19928;-65
2022/08/12 23:38:02;;;;;;;;;;;;;;;20.83;100.00;100935.06;10066206;29;20059;-63
2022/08/12 23:43:06;;;;;;;;;;;;;;;20.83;100.00;100925.34;10065162;29;19929;-64
2022/08/12 23:48:14;;;;;;;;;;;;;;;20.98;100.00;100915.91;10065114;29;19943;-72
2022/08/12 23:53:33;;;;;;;;;;;;;;;20.97;100.00;100911.56;10066103;29;19991;-72
2022/08/12 23:58:40;;;;;;;;;;;;;;;20.95;100.00;100919.53;10067893;29;19934;-68
